Airfield :
LOGIN :

Register | Disclaimer

   EN    FR    IT 

 










Legend :    VFR   Marginal VFR   IFR   Intensive IFR   Very Intensive IFR
Visi :
Ceiling :
>= 8 km
>= 3000ft
5 to 8 km
1000 to 3000 ft
1500m to 5 km
500 to 1000 ft
800 to 1500m
200 to 500 ft
< 800m
< 200 ft
Symbols :   Thunderstorms  Fog  Heavy snow  Heavy precipitations  Wind > 20 kt
SIGMETs :     Misc.  Thunderstorms  Icing  Turbulence  Mountain Waves  Volcanic Ashes






- Airport Elevation : 587 ft
- IATA code : XCR


LFOK - Chalons Vatry

CURRENT METAR :
  • 271800Z AUTO 31016KT 9999 FEW021 SCT027 BKN033 04/01 Q1008 NOSIG

EXPIRED METARs :
  • 271730Z AUTO 30023KT 9999 -DZ SCT020 BKN025 BKN030 04/02 Q1006 BECMG 27012KT
  • 271700Z AUTO 31023G33KT 9999 OVC023 05/02 Q1004 BECMG 27012KT
  • 271630Z AUTO 31024KT 9999 OVC022 05/02 Q1003 BECMG 27012KT
  • 271600Z AUTO 31030G42KT 9999 BKN022 OVC027 05/02 Q1002 BECMG 30020G30KT
  • 271530Z AUTO 31031G41KT 9999 BKN023 OVC028 05/02 Q1000 BECMG 30020G30KT

TAF TAF LFOK
Valid from the 27 at 18:00 until the 28 at 18:00 UTC


271700Z 2718/2818 31020G30KT 9999 BKN025
BECMG 2718/2720 27013KT
BECMG 2721/2724 23003KT
BECMG 2807/2810 18013KT
BECMG 2816/2818 RA OVC012



MET'MAP, your aeronautical weather chart ! - Copyright ORBIFLY December 2007 - Disclaimer

ORBIFLY MET'MAP TEAM :

Programming & Development : Alexandra Zaïnal
Concept & original design : Baudouin d'Aumeries
Assistance for programming : Marc-Olivier Méhu
Technical & hardware support : Manuel Goepfert

Contact : metmap@orbifly.com




SOURCES & CREDITS :

   NOAA